sensor_id;sensor_type;location;lat;lon;timestamp;pressure;altitude;pressure_sealevel;temperature;humidity
48386;BME280;34644;47.964;7.982;2023-04-04T00:02:34;97108.44;;;14.57;62.23
48386;BME280;34644;47.964;7.982;2023-04-04T00:09:35;97108.19;;;14.58;62.51
48386;BME280;34644;47.964;7.982;2023-04-04T00:16:35;97099.41;;;14.58;62.52
48386;BME280;34644;47.964;7.982;2023-04-04T00:23:36;97101.50;;;14.56;62.54
48386;BME280;34644;47.964;7.982;2023-04-04T00:30:36;97093.00;;;14.54;62.66
48386;BME280;34644;47.964;7.982;2023-04-04T00:37:37;97094.03;;;14.53;62.58
48386;BME280;34644;47.964;7.982;2023-04-04T00:44:37;97080.22;;;14.51;62.62
48386;BME280;34644;47.964;7.982;2023-04-04T00:51:38;97080.00;;;14.52;62.65
48386;BME280;34644;47.964;7.982;2023-04-04T00:58:41;97070.66;;;14.50;62.74
48386;BME280;34644;47.964;7.982;2023-04-04T01:05:41;97066.44;;;14.48;62.87
48386;BME280;34644;47.964;7.982;2023-04-04T01:12:42;97078.88;;;14.48;62.99
48386;BME280;34644;47.964;7.982;2023-04-04T01:20:25;97072.78;;;14.47;62.92
48386;BME280;34644;47.964;7.982;2023-04-04T01:27:17;97063.19;;;14.46;62.82
48386;BME280;34644;47.964;7.982;2023-04-04T01:41:36;97057.34;;;14.44;62.88
48386;BME280;34644;47.964;7.982;2023-04-04T01:48:38;97062.66;;;14.44;62.94
48386;BME280;34644;47.964;7.982;2023-04-04T01:55:40;97058.38;;;14.43;62.87
48386;BME280;34644;47.964;7.982;2023-04-04T02:02:42;97054.16;;;14.42;63.05
48386;BME280;34644;47.964;7.982;2023-04-04T02:09:44;97057.03;;;14.41;63.18
48386;BME280;34644;47.964;7.982;2023-04-04T02:16:44;97043.78;;;14.41;62.99
48386;BME280;34644;47.964;7.982;2023-04-04T02:23:45;97047.47;;;14.40;63.09
48386;BME280;34644;47.964;7.982;2023-04-04T02:30:45;97046.69;;;14.39;63.02
48386;BME280;34644;47.964;7.982;2023-04-04T02:37:46;97043.22;;;14.39;63.16
48386;BME280;34644;47.964;7.982;2023-04-04T02:44:53;97041.38;;;14.39;63.04
48386;BME280;34644;47.964;7.982;2023-04-04T02:51:54;97031.81;;;14.38;63.15
48386;BME280;34644;47.964;7.982;2023-04-04T02:58:55;97028.63;;;14.36;63.26
48386;BME280;34644;47.964;7.982;2023-04-04T03:05:57;97034.16;;;14.35;63.12
48386;BME280;34644;47.964;7.982;2023-04-04T03:12:57;97037.63;;;14.35;63.22
48386;BME280;34644;47.964;7.982;2023-04-04T03:20:00;97032.81;;;14.32;63.30
48386;BME280;34644;47.964;7.982;2023-04-04T03:27:00;97032.00;;;14.32;63.38
48386;BME280;34644;47.964;7.982;2023-04-04T03:34:01;97042.84;;;14.30;63.31
48386;BME280;34644;47.964;7.982;2023-04-04T03:41:03;97033.28;;;14.29;63.41
48386;BME280;34644;47.964;7.982;2023-04-04T03:48:04;97035.94;;;14.29;63.44
48386;BME280;34644;47.964;7.982;2023-04-04T03:55:06;97040.22;;;14.30;63.41
48386;BME280;34644;47.964;7.982;2023-04-04T04:02:09;97043.91;;;14.29;63.57
48386;BME280;34644;47.964;7.982;2023-04-04T04:09:09;97040.94;;;14.25;63.47
48386;BME280;34644;47.964;7.982;2023-04-04T04:16:12;97041.50;;;14.27;63.59
48386;BME280;34644;47.964;7.982;2023-04-04T04:23:13;97045.88;;;14.39;63.71
48386;BME280;34644;47.964;7.982;2023-04-04T04:30:14;97049.09;;;14.41;63.75
48386;BME280;34644;47.964;7.982;2023-04-04T04:37:18;97054.88;;;14.38;63.79
48386;BME280;34644;47.964;7.982;2023-04-04T04:44:22;97050.88;;;14.35;63.82
48386;BME280;34644;47.964;7.982;2023-04-04T04:51:22;97061.47;;;14.35;63.76
48386;BME280;34644;47.964;7.982;2023-04-04T04:58:26;97060.09;;;14.33;63.77
48386;BME280;34644;47.964;7.982;2023-04-04T05:05:29;97058.13;;;14.45;63.19
48386;BME280;34644;47.964;7.982;2023-04-04T05:12:40;97068.69;;;14.40;63.32
48386;BME280;34644;47.964;7.982;2023-04-04T05:19:44;97069.97;;;14.37;63.30
48386;BME280;34644;47.964;7.982;2023-04-04T05:26:48;97067.56;;;14.36;63.33
48386;BME280;34644;47.964;7.982;2023-04-04T05:33:49;97068.88;;;14.33;63.45
48386;BME280;34644;47.964;7.982;2023-04-04T05:40:59;97082.13;;;14.33;63.36
48386;BME280;34644;47.964;7.982;2023-04-04T05:48:00;97087.69;;;14.32;63.27
48386;BME280;34644;47.964;7.982;2023-04-04T05:55:03;97090.34;;;14.32;63.37
48386;BME280;34644;47.964;7.982;2023-04-04T06:02:06;97098.53;;;14.30;63.42
48386;BME280;34644;47.964;7.982;2023-04-04T06:09:10;97099.34;;;14.30;63.36
48386;BME280;34644;47.964;7.982;2023-04-04T06:16:11;97103.84;;;14.30;63.37
48386;BME280;34644;47.964;7.982;2023-04-04T06:23:11;97103.28;;;14.28;63.30
48386;BME280;34644;47.964;7.982;2023-04-04T06:30:16;97096.91;;;14.29;63.37
48386;BME280;34644;47.964;7.982;2023-04-04T06:37:20;97095.59;;;14.26;63.54
48386;BME280;34644;47.964;7.982;2023-04-04T06:44:27;97101.91;;;14.25;63.29
48386;BME280;34644;47.964;7.982;2023-04-04T06:51:27;97090.53;;;14.25;63.32
48386;BME280;34644;47.964;7.982;2023-04-04T06:58:28;97086.00;;;14.25;63.33
48386;BME280;34644;47.964;7.982;2023-04-04T07:05:28;97077.50;;;14.23;63.31
48386;BME280;34644;47.964;7.982;2023-04-04T07:12:29;97059.75;;;14.24;63.46
48386;BME280;34644;47.964;7.982;2023-04-04T07:19:29;97074.63;;;14.25;63.46
48386;BME280;34644;47.964;7.982;2023-04-04T07:26:30;97064.00;;;14.25;63.46
48386;BME280;34644;47.964;7.982;2023-04-04T07:33:30;97066.41;;;14.26;63.27
48386;BME280;34644;47.964;7.982;2023-04-04T07:40:31;97062.69;;;14.27;63.24
48386;BME280;34644;47.964;7.982;2023-04-04T07:47:31;97072.03;;;14.30;63.19
48386;BME280;34644;47.964;7.982;2023-04-04T07:54:31;97064.63;;;14.32;63.23
48386;BME280;34644;47.964;7.982;2023-04-04T08:01:32;97068.88;;;14.33;63.23
48386;BME280;34644;47.964;7.982;2023-04-04T08:08:32;97068.41;;;14.36;62.89
48386;BME280;34644;47.964;7.982;2023-04-04T08:15:32;97062.03;;;14.37;63.08
48386;BME280;34644;47.964;7.982;2023-04-04T08:22:32;97061.53;;;14.40;63.06
48386;BME280;34644;47.964;7.982;2023-04-04T08:29:33;97060.25;;;14.43;62.81
48386;BME280;34644;47.964;7.982;2023-04-04T08:36:33;97060.31;;;14.48;62.78
48386;BME280;34644;47.964;7.982;2023-04-04T08:43:34;97065.94;;;14.52;62.91
48386;BME280;34644;47.964;7.982;2023-04-04T08:50:39;97071.00;;;14.53;62.82
48386;BME280;34644;47.964;7.982;2023-04-04T08:57:42;97069.69;;;14.56;63.29
48386;BME280;34644;47.964;7.982;2023-04-04T09:04:43;97061.00;;;14.60;63.21
48386;BME280;34644;47.964;7.982;2023-04-04T09:11:45;97062.91;;;14.65;63.49
48386;BME280;34644;47.964;7.982;2023-04-04T09:18:47;97066.44;;;14.71;63.81
48386;BME280;34644;47.964;7.982;2023-04-04T09:25:54;97052.16;;;14.77;63.87
48386;BME280;34644;47.964;7.982;2023-04-04T09:32:54;97056.72;;;14.81;63.99
48386;BME280;34644;47.964;7.982;2023-04-04T09:39:56;97062.91;;;14.87;63.96
48386;BME280;34644;47.964;7.982;2023-04-04T09:54:26;97058.25;;;14.99;64.11
48386;BME280;34644;47.964;7.982;2023-04-04T10:01:29;97060.94;;;15.05;63.84
48386;BME280;34644;47.964;7.982;2023-04-04T10:08:29;97058.09;;;15.11;63.92
48386;BME280;34644;47.964;7.982;2023-04-04T10:15:34;97067.44;;;15.19;63.83
48386;BME280;34644;47.964;7.982;2023-04-04T10:22:36;97054.53;;;15.28;63.32
48386;BME280;34644;47.964;7.982;2023-04-04T10:29:37;97067.34;;;15.36;61.52
48386;BME280;34644;47.964;7.982;2023-04-04T10:36:39;97060.50;;;15.45;60.99
48386;BME280;34644;47.964;7.982;2023-04-04T10:43:44;97061.34;;;15.51;61.97
48386;BME280;34644;47.964;7.982;2023-04-04T10:50:46;97056.03;;;15.51;62.46
48386;BME280;34644;47.964;7.982;2023-04-04T10:57:48;97046.25;;;15.56;62.29
48386;BME280;34644;47.964;7.982;2023-04-04T11:04:51;97033.00;;;15.62;62.76
48386;BME280;34644;47.964;7.982;2023-04-04T11:12:11;97025.06;;;15.67;62.71
48386;BME280;34644;47.964;7.982;2023-04-04T11:19:14;97015.53;;;15.71;62.24
48386;BME280;34644;47.964;7.982;2023-04-04T11:33:29;97005.50;;;15.78;61.44
48386;BME280;34644;47.964;7.982;2023-04-04T11:40:33;97000.47;;;15.82;61.46
48386;BME280;34644;47.964;7.982;2023-04-04T11:47:34;97000.75;;;15.85;61.32
48386;BME280;34644;47.964;7.982;2023-04-04T11:54:36;96998.13;;;15.90;61.42
48386;BME280;34644;47.964;7.982;2023-04-04T12:01:37;96997.34;;;15.95;61.22
48386;BME280;34644;47.964;7.982;2023-04-04T12:08:38;96999.22;;;16.00;60.89
48386;BME280;34644;47.964;7.982;2023-04-04T12:15:38;96984.63;;;16.02;60.75
48386;BME280;34644;47.964;7.982;2023-04-04T12:22:41;96991.53;;;16.03;60.57
48386;BME280;34644;47.964;7.982;2023-04-04T12:29:41;96987.31;;;16.07;60.13
48386;BME280;34644;47.964;7.982;2023-04-04T12:36:47;96988.34;;;16.01;46.57
48386;BME280;34644;47.964;7.982;2023-04-04T12:43:48;96985.97;;;16.05;48.71
48386;BME280;34644;47.964;7.982;2023-04-04T12:50:52;96980.09;;;16.03;50.35
48386;BME280;34644;47.964;7.982;2023-04-04T12:57:53;96972.41;;;16.06;51.88
48386;BME280;34644;47.964;7.982;2023-04-04T13:04:54;96982.25;;;16.06;51.98
48386;BME280;34644;47.964;7.982;2023-04-04T13:11:56;96974.53;;;16.04;52.45
48386;BME280;34644;47.964;7.982;2023-04-04T13:18:58;96963.63;;;16.06;52.39
48386;BME280;34644;47.964;7.982;2023-04-04T13:25:59;96964.44;;;16.06;52.67
48386;BME280;34644;47.964;7.982;2023-04-04T13:32:59;96943.97;;;16.07;52.62
48386;BME280;34644;47.964;7.982;2023-04-04T13:39:59;96942.63;;;16.04;52.50
48386;BME280;34644;47.964;7.982;2023-04-04T13:47:00;96944.50;;;16.04;52.82
48386;BME280;34644;47.964;7.982;2023-04-04T13:54:00;96938.34;;;15.98;53.57
48386;BME280;34644;47.964;7.982;2023-04-04T14:01:01;96939.44;;;16.02;52.31
48386;BME280;34644;47.964;7.982;2023-04-04T14:08:03;96935.69;;;15.98;51.83
48386;BME280;34644;47.964;7.982;2023-04-04T14:15:03;96930.38;;;15.93;51.79
48386;BME280;34644;47.964;7.982;2023-04-04T14:22:04;96924.00;;;15.94;51.69
48386;BME280;34644;47.964;7.982;2023-04-04T14:29:05;96921.34;;;15.94;52.37
48386;BME280;34644;47.964;7.982;2023-04-04T14:36:06;96921.81;;;15.86;51.52
48386;BME280;34644;47.964;7.982;2023-04-04T14:43:06;96918.63;;;15.89;51.53
48386;BME280;34644;47.964;7.982;2023-04-04T14:50:06;96916.75;;;15.84;50.82
48386;BME280;34644;47.964;7.982;2023-04-04T14:57:07;96920.50;;;15.83;51.18
48386;BME280;34644;47.964;7.982;2023-04-04T15:04:07;96926.84;;;15.77;51.02
48386;BME280;34644;47.964;7.982;2023-04-04T15:11:08;96919.28;;;15.64;51.43
48386;BME280;34644;47.964;7.982;2023-04-04T15:18:09;96923.28;;;15.66;49.85
48386;BME280;34644;47.964;7.982;2023-04-04T15:25:09;96918.50;;;15.63;49.07
48386;BME280;34644;47.964;7.982;2023-04-04T15:32:09;96920.63;;;15.61;50.83
48386;BME280;34644;47.964;7.982;2023-04-04T15:39:09;96922.19;;;15.57;51.76
48386;BME280;34644;47.964;7.982;2023-04-04T15:46:13;96933.63;;;15.58;49.85
48386;BME280;34644;47.964;7.982;2023-04-04T15:53:13;96928.25;;;15.52;53.00
48386;BME280;34644;47.964;7.982;2023-04-04T16:00:13;96933.03;;;15.50;52.72
48386;BME280;34644;47.964;7.982;2023-04-04T16:07:14;96935.69;;;15.50;51.95
48386;BME280;34644;47.964;7.982;2023-04-04T16:14:14;96927.72;;;15.45;50.58
48386;BME280;34644;47.964;7.982;2023-04-04T16:21:14;96923.53;;;14.84;42.99
48386;BME280;34644;47.964;7.982;2023-04-04T16:28:15;96935.97;;;15.11;48.63
48386;BME280;34644;47.964;7.982;2023-04-04T16:35:15;96925.47;;;15.27;51.10
48386;BME280;34644;47.964;7.982;2023-04-04T16:42:15;96924.44;;;15.33;52.75
48386;BME280;34644;47.964;7.982;2023-04-04T16:49:18;96916.22;;;15.34;54.06
48386;BME280;34644;47.964;7.982;2023-04-04T16:56:18;96919.41;;;15.36;54.44
48386;BME280;34644;47.964;7.982;2023-04-04T17:03:18;96916.50;;;15.38;55.15
48386;BME280;34644;47.964;7.982;2023-04-04T17:10:19;96919.94;;;15.38;55.48
48386;BME280;34644;47.964;7.982;2023-04-04T17:17:19;96924.47;;;15.38;56.16
48386;BME280;34644;47.964;7.982;2023-04-04T17:24:19;96922.06;;;15.36;56.83
48386;BME280;34644;47.964;7.982;2023-04-04T17:31:22;96923.13;;;15.35;57.44
48386;BME280;34644;47.964;7.982;2023-04-04T17:38:22;96921.53;;;15.34;57.85
48386;BME280;34644;47.964;7.982;2023-04-04T17:45:22;96929.75;;;15.33;58.27
48386;BME280;34644;47.964;7.982;2023-04-04T17:52:22;96938.75;;;15.32;59.15
48386;BME280;34644;47.964;7.982;2023-04-04T17:59:23;96945.16;;;15.31;59.51
48386;BME280;34644;47.964;7.982;2023-04-04T18:06:23;96945.16;;;15.31;60.07
48386;BME280;34644;47.964;7.982;2023-04-04T18:13:23;96953.38;;;15.29;59.77
48386;BME280;34644;47.964;7.982;2023-04-04T18:20:24;96951.97;;;15.22;58.34
48386;BME280;34644;47.964;7.982;2023-04-04T18:27:24;96967.28;;;15.09;58.75
48386;BME280;34644;47.964;7.982;2023-04-04T18:34:24;96980.13;;;14.90;58.39
48386;BME280;34644;47.964;7.982;2023-04-04T18:41:24;96974.41;;;14.76;58.29
48386;BME280;34644;47.964;7.982;2023-04-04T18:48:25;96979.94;;;14.70;58.18
48386;BME280;34644;47.964;7.982;2023-04-04T18:55:26;96986.25;;;14.63;57.63
48386;BME280;34644;47.964;7.982;2023-04-04T19:02:26;96996.56;;;14.60;57.17
48386;BME280;34644;47.964;7.982;2023-04-04T19:09:26;97011.31;;;14.56;56.99
48386;BME280;34644;47.964;7.982;2023-04-04T19:16:29;97013.06;;;14.45;56.32
48386;BME280;34644;47.964;7.982;2023-04-04T19:23:30;97015.13;;;14.38;56.01
48386;BME280;34644;47.964;7.982;2023-04-04T19:30:44;97020.63;;;14.31;55.66
48386;BME280;34644;47.964;7.982;2023-04-04T19:37:48;97024.31;;;14.30;55.22
48386;BME280;34644;47.964;7.982;2023-04-04T19:44:48;97025.72;;;14.16;54.82
48386;BME280;34644;47.964;7.982;2023-04-04T19:51:50;97028.38;;;14.16;55.12
48386;BME280;34644;47.964;7.982;2023-04-04T19:58:52;97021.16;;;14.11;54.74
48386;BME280;34644;47.964;7.982;2023-04-04T20:05:54;97027.72;;;14.08;54.83
48386;BME280;34644;47.964;7.982;2023-04-04T20:12:55;97035.34;;;14.22;56.04
48386;BME280;34644;47.964;7.982;2023-04-04T20:19:56;97030.69;;;14.34;58.51
48386;BME280;34644;47.964;7.982;2023-04-04T20:26:56;97031.31;;;14.41;59.01
48386;BME280;34644;47.964;7.982;2023-04-04T20:34:03;97038.78;;;14.44;58.99
48386;BME280;34644;47.964;7.982;2023-04-04T20:41:09;97039.34;;;14.46;59.45
48386;BME280;34644;47.964;7.982;2023-04-04T20:48:30;97042.81;;;14.47;59.80
48386;BME280;34644;47.964;7.982;2023-04-04T20:55:32;97042.31;;;14.50;60.08
48386;BME280;34644;47.964;7.982;2023-04-04T21:02:33;97045.75;;;14.51;60.32
48386;BME280;34644;47.964;7.982;2023-04-04T21:09:33;97049.78;;;14.53;60.20
48386;BME280;34644;47.964;7.982;2023-04-04T21:16:34;97051.09;;;14.56;60.51
48386;BME280;34644;47.964;7.982;2023-04-04T21:30:42;97050.06;;;14.57;61.05
48386;BME280;34644;47.964;7.982;2023-04-04T21:37:43;97047.19;;;14.58;61.12
48386;BME280;34644;47.964;7.982;2023-04-04T21:44:43;97054.06;;;14.59;61.23
48386;BME280;34644;47.964;7.982;2023-04-04T21:51:44;97055.91;;;14.59;61.04
48386;BME280;34644;47.964;7.982;2023-04-04T21:58:44;97057.56;;;14.60;61.34
48386;BME280;34644;47.964;7.982;2023-04-04T22:05:44;97049.59;;;14.60;61.21
48386;BME280;34644;47.964;7.982;2023-04-04T22:12:45;97056.50;;;14.61;61.31
48386;BME280;34644;47.964;7.982;2023-04-04T22:19:49;97056.50;;;14.61;61.39
48386;BME280;34644;47.964;7.982;2023-04-04T22:26:58;97057.31;;;14.61;61.40
48386;BME280;34644;47.964;7.982;2023-04-04T22:34:02;97049.59;;;14.60;61.58
48386;BME280;34644;47.964;7.982;2023-04-04T22:41:02;97051.41;;;14.59;61.66
48386;BME280;34644;47.964;7.982;2023-04-04T22:48:02;97043.22;;;14.61;61.76
48386;BME280;34644;47.964;7.982;2023-04-04T22:55:03;97040.59;;;14.61;61.68
48386;BME280;34644;47.964;7.982;2023-04-04T23:02:06;97035.28;;;14.61;61.75
48386;BME280;34644;47.964;7.982;2023-04-04T23:09:06;97034.47;;;14.60;62.05
48386;BME280;34644;47.964;7.982;2023-04-04T23:16:07;97033.69;;;14.60;62.03
48386;BME280;34644;47.964;7.982;2023-04-04T23:23:07;97026.75;;;14.59;62.21
48386;BME280;34644;47.964;7.982;2023-04-04T23:30:08;97035.50;;;14.59;62.19
48386;BME280;34644;47.964;7.982;2023-04-04T23:37:08;97024.88;;;14.59;62.12
48386;BME280;34644;47.964;7.982;2023-04-04T23:44:09;97026.75;;;14.59;62.24
48386;BME280;34644;47.964;7.982;2023-04-04T23:51:09;97025.94;;;14.58;62.39
48386;BME280;34644;47.964;7.982;2023-04-04T23:58:10;97020.91;;;14.57;62.62
